Time,TemperatureF,DewpointF,PressureIn,WindDirection,WindDirectionDegrees,WindSpeedMPH,WindSpeedGustMPH,Humidity,HourlyPrecipIn,Conditions,Clouds,dailyrainin,SoftwareType,DateUTC
2013-02-09 00:00:00,32.4,31.0,30.29,ESE,106,0.0,0.0,96,0.00,,,0.00,weatherlink.com 1.10,2013-02-09 08:00:00,
2013-02-09 00:15:00,31.8,31.0,30.29,ESE,106,0.0,0.0,97,0.00,,,0.00,weatherlink.com 1.10,2013-02-09 08:15:00,
2013-02-09 00:30:00,31.0,30.0,30.29,ESE,106,0.0,0.0,97,0.00,,,0.00,weatherlink.com 1.10,2013-02-09 08:30:00,
2013-02-09 00:46:00,30.6,30.0,30.29,ESE,106,0.0,0.0,98,0.00,,,0.00,weatherlink.com 1.10,2013-02-09 08:46:00,
2013-02-09 01:00:00,30.4,30.0,30.29,ESE,106,0.0,0.0,98,0.00,,,0.00,weatherlink.com 1.10,2013-02-09 09:00:00,
2013-02-09 01:15:00,30.3,30.0,30.29,ESE,106,0.0,0.0,98,0.00,,,0.00,weatherlink.com 1.10,2013-02-09 09:15:00,
2013-02-09 01:31:00,30.3,30.0,30.29,ESE,106,0.0,0.0,98,0.00,,,0.00,weatherlink.com 1.10,2013-02-09 09:31:00,
2013-02-09 01:45:00,30.5,30.0,30.29,ESE,106,0.0,0.0,98,0.00,,,0.00,weatherlink.com 1.10,2013-02-09 09:45:00,
2013-02-09 02:00:00,30.5,30.0,30.30,ESE,106,0.0,0.0,98,0.00,,,0.00,weatherlink.com 1.10,2013-02-09 10:00:00,
2013-02-09 02:15:00,30.4,30.0,30.30,ESE,106,0.0,0.0,98,0.00,,,0.00,weatherlink.com 1.10,2013-02-09 10:15:00,
2013-02-09 02:30:00,29.9,29.0,30.30,ESE,106,0.0,0.0,98,0.00,,,0.00,weatherlink.com 1.10,2013-02-09 10:30:00,
2013-02-09 02:46:00,30.6,30.0,30.30,ESE,106,0.0,0.0,99,0.00,,,0.00,weatherlink.com 1.10,2013-02-09 10:46:00,
2013-02-09 03:01:00,30.6,30.0,30.30,ESE,106,0.0,0.0,99,0.00,,,0.00,weatherlink.com 1.10,2013-02-09 11:01:00,
2013-02-09 03:16:00,30.9,31.0,30.30,ESE,106,0.0,0.0,99,0.00,,,0.00,weatherlink.com 1.10,2013-02-09 11:16:00,
2013-02-09 03:31:00,31.2,31.0,30.29,ESE,106,0.0,0.0,99,0.00,,,0.00,weatherlink.com 1.10,2013-02-09 11:31:00,
2013-02-09 03:46:00,31.3,31.0,30.29,ESE,106,0.0,0.0,99,0.00,,,0.00,weatherlink.com 1.10,2013-02-09 11:46:00,
2013-02-09 04:04:00,31.3,31.0,30.29,ESE,106,0.0,0.0,99,0.00,,,0.00,weatherlink.com 1.10,2013-02-09 12:04:00,
2013-02-09 04:16:00,30.9,31.0,30.29,ESE,106,0.0,0.0,99,0.00,,,0.00,weatherlink.com 1.10,2013-02-09 12:16:00,
2013-02-09 04:31:00,30.3,30.0,30.28,ESE,106,0.0,0.0,98,0.00,,,0.00,weatherlink.com 1.10,2013-02-09 12:31:00,
2013-02-09 04:46:00,30.1,30.0,30.28,ESE,106,0.0,0.0,98,0.00,,,0.00,weatherlink.com 1.10,2013-02-09 12:46:00,
2013-02-09 05:01:00,29.6,29.0,30.29,ESE,106,0.0,0.0,98,0.00,,,0.00,weatherlink.com 1.10,2013-02-09 13:01:00,
2013-02-09 05:16:00,29.3,29.0,30.29,ESE,106,0.0,0.0,98,0.00,,,0.00,weatherlink.com 1.10,2013-02-09 13:16:00,
2013-02-09 05:31:00,29.0,29.0,30.29,ESE,106,0.0,0.0,98,0.00,,,0.00,weatherlink.com 1.10,2013-02-09 13:31:00,
2013-02-09 05:46:00,29.0,29.0,30.28,ESE,106,0.0,0.0,99,0.00,,,0.00,weatherlink.com 1.10,2013-02-09 13:46:00,
2013-02-09 06:01:00,29.7,30.0,30.28,ESE,106,0.0,0.0,99,0.00,,,0.00,weatherlink.com 1.10,2013-02-09 14:01:00,
2013-02-09 06:16:00,30.1,30.0,30.29,ESE,106,0.0,0.0,99,0.00,,,0.00,weatherlink.com 1.10,2013-02-09 14:16:00,
2013-02-09 06:31:00,30.2,30.0,30.28,ESE,106,0.0,0.0,99,0.00,,,0.00,weatherlink.com 1.10,2013-02-09 14:31:00,
2013-02-09 06:46:00,30.1,30.0,30.29,ESE,106,0.0,0.0,99,0.00,,,0.00,weatherlink.com 1.10,2013-02-09 14:46:00,
2013-02-09 07:01:00,30.1,30.0,30.29,ESE,106,0.0,0.0,99,0.00,,,0.00,weatherlink.com 1.10,2013-02-09 15:01:00,
2013-02-09 07:16:00,30.5,30.0,30.29,ESE,106,0.0,0.0,99,0.00,,,0.00,weatherlink.com 1.10,2013-02-09 15:16:00,
2013-02-09 07:31:00,30.9,31.0,30.29,ESE,106,0.0,0.0,99,0.00,,,0.00,weatherlink.com 1.10,2013-02-09 15:31:00,
2013-02-09 07:46:00,31.4,31.0,30.29,ESE,106,0.0,0.0,99,0.00,,,0.00,weatherlink.com 1.10,2013-02-09 15:46:00,
2013-02-09 08:01:00,31.6,31.0,30.30,ESE,106,0.0,0.0,99,0.00,,,0.00,weatherlink.com 1.10,2013-02-09 16:01:00,
2013-02-09 08:16:00,31.8,32.0,30.30,ESE,106,0.0,0.0,99,0.00,,,0.00,weatherlink.com 1.10,2013-02-09 16:16:00,
2013-02-09 08:31:00,31.9,32.0,30.30,ESE,106,0.0,0.0,99,0.00,,,0.00,weatherlink.com 1.10,2013-02-09 16:31:00,
2013-02-09 08:46:00,32.0,32.0,30.30,ESE,106,0.0,0.0,99,0.00,,,0.00,weatherlink.com 1.10,2013-02-09 16:46:00,
2013-02-09 09:01:00,32.5,32.0,30.30,ESE,106,0.0,0.0,99,0.00,,,0.00,weatherlink.com 1.10,2013-02-09 17:01:00,
2013-02-09 09:16:00,33.4,33.0,30.30,ESE,106,0.0,0.0,99,0.00,,,0.00,weatherlink.com 1.10,2013-02-09 17:16:00,
2013-02-09 09:31:00,34.1,34.0,30.30,ESE,106,0.0,0.0,99,0.00,,,0.00,weatherlink.com 1.10,2013-02-09 17:31:00,
2013-02-09 09:46:00,34.9,35.0,30.30,ESE,106,0.0,0.0,99,0.00,,,0.00,weatherlink.com 1.10,2013-02-09 17:46:00,
2013-02-09 10:01:00,35.9,36.0,30.30,SE,143,0.0,0.0,99,0.00,,,0.00,weatherlink.com 1.10,2013-02-09 18:01:00,
2013-02-09 10:16:00,36.7,37.0,30.30,SSE,151,0.0,0.0,99,0.00,,,0.00,weatherlink.com 1.10,2013-02-09 18:16:00,
2013-02-09 10:31:00,37.4,37.0,30.30,NW,312,0.0,0.0,99,0.00,,,0.00,weatherlink.com 1.10,2013-02-09 18:31:00,
2013-02-09 10:47:00,38.4,37.0,30.30,NE,34,0.0,1.0,96,0.00,,,0.00,weatherlink.com 1.10,2013-02-09 18:47:00,
2013-02-09 11:02:00,39.7,38.0,30.30,WNW,290,0.0,2.0,93,0.00,,,0.00,weatherlink.com 1.10,2013-02-09 19:02:00,
2013-02-09 11:17:00,40.8,39.0,30.30,SSW,210,0.0,0.0,92,0.00,,,0.00,weatherlink.com 1.10,2013-02-09 19:17:00,
2013-02-09 11:32:00,41.9,39.0,30.30,WNW,288,0.0,0.0,89,0.00,,,0.00,weatherlink.com 1.10,2013-02-09 19:32:00,
2013-02-09 11:47:00,43.0,40.0,30.30,NNW,343,0.0,0.0,88,0.00,,,0.00,weatherlink.com 1.10,2013-02-09 19:47:00,
2013-02-09 12:02:00,43.8,40.0,30.29,WSW,254,0.0,0.0,86,0.00,,,0.00,weatherlink.com 1.10,2013-02-09 20:02:00,
2013-02-09 12:17:00,44.8,40.0,30.29,SSW,210,0.0,2.0,83,0.00,,,0.00,weatherlink.com 1.10,2013-02-09 20:17:00,
2013-02-09 12:32:00,45.4,40.0,30.29,East,94,0.0,1.0,82,0.00,,,0.00,weatherlink.com 1.10,2013-02-09 20:32:00,
2013-02-09 12:47:00,46.0,40.0,30.29,NE,46,0.0,0.0,79,0.00,,,0.00,weatherlink.com 1.10,2013-02-09 20:47:00,
2013-02-09 13:02:00,46.5,40.0,30.28,SW,219,0.0,1.0,79,0.00,,,0.00,weatherlink.com 1.10,2013-02-09 21:02:00,
2013-02-09 13:17:00,46.7,40.0,30.28,NW,305,2.0,2.0,77,0.00,,,0.00,weatherlink.com 1.10,2013-02-09 21:17:00,
2013-02-09 13:32:00,46.9,40.0,30.28,NNW,331,0.0,1.0,78,0.00,,,0.00,weatherlink.com 1.10,2013-02-09 21:32:00,
2013-02-09 13:47:00,47.0,39.0,30.27,SSW,211,0.0,2.0,75,0.00,,,0.00,weatherlink.com 1.10,2013-02-09 21:47:00,
2013-02-09 14:02:00,47.3,39.0,30.27,SW,222,0.0,1.0,74,0.00,,,0.00,weatherlink.com 1.10,2013-02-09 22:02:00,
2013-02-09 14:17:00,47.2,39.0,30.27,SW,219,0.0,0.0,74,0.00,,,0.00,weatherlink.com 1.10,2013-02-09 22:17:00,
2013-02-09 14:32:00,47.4,40.0,30.27,WNW,285,0.0,2.0,74,0.00,,,0.00,weatherlink.com 1.10,2013-02-09 22:32:00,
2013-02-09 14:47:00,47.2,40.0,30.27,WNW,286,1.0,2.0,75,0.00,,,0.00,weatherlink.com 1.10,2013-02-09 22:47:00,
2013-02-09 15:02:00,47.5,40.0,30.27,WNW,294,0.0,0.0,75,0.00,,,0.00,weatherlink.com 1.10,2013-02-09 23:02:00,
2013-02-09 15:17:00,47.4,40.0,30.27,SW,222,0.0,0.0,75,0.00,,,0.00,weatherlink.com 1.10,2013-02-09 23:17:00,
2013-02-09 15:32:00,47.3,40.0,30.27,SW,218,0.0,0.0,76,0.00,,,0.00,weatherlink.com 1.10,2013-02-09 23:32:00,
2013-02-09 15:47:00,47.6,40.0,30.27,WNW,288,0.0,0.0,76,0.00,,,0.00,weatherlink.com 1.10,2013-02-09 23:47:00,
2013-02-09 16:02:00,46.8,41.0,30.28,WNW,302,0.0,0.0,79,0.00,,,0.00,weatherlink.com 1.10,2013-02-10 00:02:00,
2013-02-09 16:17:00,46.2,41.0,30.28,WNW,284,0.0,0.0,82,0.00,,,0.00,weatherlink.com 1.10,2013-02-10 00:17:00,
2013-02-09 16:32:00,45.7,41.0,30.28,NW,313,0.0,3.0,82,0.00,,,0.00,weatherlink.com 1.10,2013-02-10 00:32:00,
2013-02-09 16:47:00,45.3,40.0,30.29,WSW,257,0.0,3.0,83,0.00,,,0.00,weatherlink.com 1.10,2013-02-10 00:47:00,
2013-02-09 17:02:00,45.1,41.0,30.29,WNW,286,0.0,0.0,84,0.00,,,0.00,weatherlink.com 1.10,2013-02-10 01:02:00,
2013-02-09 17:17:00,44.5,41.0,30.29,WNW,286,0.0,0.0,87,0.00,,,0.00,weatherlink.com 1.10,2013-02-10 01:17:00,
2013-02-09 17:32:00,43.7,41.0,30.29,WNW,287,0.0,0.0,89,0.00,,,0.00,weatherlink.com 1.10,2013-02-10 01:32:00,
2013-02-09 17:47:00,43.3,41.0,30.29,WNW,287,0.0,0.0,90,0.00,,,0.00,weatherlink.com 1.10,2013-02-10 01:47:00,
2013-02-09 18:02:00,42.8,40.0,30.29,WNW,286,0.0,0.0,91,0.00,,,0.00,weatherlink.com 1.10,2013-02-10 02:02:00,
2013-02-09 18:17:00,42.5,41.0,30.29,WNW,287,0.0,0.0,93,0.00,,,0.00,weatherlink.com 1.10,2013-02-10 02:17:00,
2013-02-09 18:32:00,42.2,40.0,30.29,WNW,287,0.0,0.0,93,0.00,,,0.00,weatherlink.com 1.10,2013-02-10 02:32:00,
2013-02-09 18:48:00,41.9,40.0,30.29,WNW,286,0.0,0.0,94,0.00,,,0.00,weatherlink.com 1.10,2013-02-10 02:48:00,
2013-02-09 19:02:00,41.8,40.0,30.29,WNW,287,0.0,0.0,94,0.00,,,0.00,weatherlink.com 1.10,2013-02-10 03:02:00,
2013-02-09 19:17:00,41.5,40.0,30.29,WNW,286,0.0,0.0,95,0.00,,,0.00,weatherlink.com 1.10,2013-02-10 03:17:00,
2013-02-09 19:32:00,41.3,40.0,30.29,WNW,287,0.0,0.0,95,0.00,,,0.00,weatherlink.com 1.10,2013-02-10 03:32:00,
2013-02-09 19:47:00,41.2,40.0,30.30,WNW,286,0.0,0.0,95,0.00,,,0.00,weatherlink.com 1.10,2013-02-10 03:47:00,
2013-02-09 20:02:00,41.1,40.0,30.30,WNW,287,0.0,0.0,96,0.00,,,0.00,weatherlink.com 1.10,2013-02-10 04:02:00,
2013-02-09 20:18:00,40.9,40.0,30.30,WNW,287,0.0,0.0,96,0.00,,,0.00,weatherlink.com 1.10,2013-02-10 04:18:00,
2013-02-09 20:32:00,40.8,40.0,30.30,WNW,287,0.0,0.0,96,0.00,,,0.00,weatherlink.com 1.10,2013-02-10 04:32:00,
2013-02-09 20:47:00,40.8,40.0,30.30,WNW,287,0.0,0.0,96,0.00,,,0.00,weatherlink.com 1.10,2013-02-10 04:47:00,
2013-02-09 21:02:00,40.7,40.0,30.30,WNW,287,0.0,0.0,96,0.00,,,0.00,weatherlink.com 1.10,2013-02-10 05:02:00,
2013-02-09 21:17:00,40.7,40.0,30.31,WNW,287,0.0,0.0,96,0.00,,,0.00,weatherlink.com 1.10,2013-02-10 05:17:00,
2013-02-09 21:32:00,40.6,40.0,30.31,WNW,287,0.0,0.0,97,0.00,,,0.00,weatherlink.com 1.10,2013-02-10 05:32:00,
2013-02-09 21:47:00,40.5,40.0,30.32,WNW,287,0.0,0.0,97,0.00,,,0.00,weatherlink.com 1.10,2013-02-10 05:47:00,
2013-02-09 22:02:00,40.6,40.0,30.32,WNW,287,0.0,0.0,97,0.00,,,0.00,weatherlink.com 1.10,2013-02-10 06:02:00,
2013-02-09 22:17:00,40.8,40.0,30.32,WNW,287,0.0,0.0,97,0.00,,,0.00,weatherlink.com 1.10,2013-02-10 06:17:00,
2013-02-09 22:32:00,41.0,40.0,30.32,WNW,287,0.0,0.0,96,0.00,,,0.00,weatherlink.com 1.10,2013-02-10 06:32:00,
2013-02-09 22:47:00,41.1,40.0,30.32,ENE,75,0.0,0.0,96,0.00,,,0.00,weatherlink.com 1.10,2013-02-10 06:47:00,
2013-02-09 23:02:00,40.8,40.0,30.33,ENE,75,0.0,0.0,96,0.00,,,0.00,weatherlink.com 1.10,2013-02-10 07:02:00,
2013-02-09 23:17:00,40.4,39.0,30.33,ENE,75,0.0,0.0,96,0.00,,,0.00,weatherlink.com 1.10,2013-02-10 07:17:00,
2013-02-09 23:33:00,39.6,39.0,30.33,East,89,0.0,0.0,97,0.00,,,0.00,weatherlink.com 1.10,2013-02-10 07:33:00,
2013-02-09 23:47:00,39.5,39.0,30.33,WNW,301,0.0,0.0,97,0.00,,,0.00,weatherlink.com 1.10,2013-02-10 07:47:00,